Time;durP1;ratioP1;P1;durP2;ratioP2;P2;SDS_P1;SDS_P2;PMS_P1;PMS_P2;Temp;Humidity;BMP_temperature;BMP_pressure;BME280_temperature;BME280_humidity;BME280_pressure;Samples;Min_cycle;Max_cycle;Signal;HPM_P1;HPM_P2
2023/06/25 00:01:47;;;;;;;17.15;9.40;;;;;;;;;;5092454;28;20032;-73
2023/06/25 00:04:12;;;;;;;16.10;8.90;;;;;;;;;;5093817;28;20024;-73
2023/06/25 00:06:38;;;;;;;21.60;11.18;;;;;;;;;;5090754;28;20023;-73
2023/06/25 00:09:03;;;;;;;21.70;11.20;;;;;;;;;;5075645;28;20024;-73
2023/06/25 00:11:28;;;;;;;22.75;12.05;;;;;;;;;;5073233;28;20553;-73
2023/06/25 00:13:53;;;;;;;21.30;11.30;;;;;;;;;;5072181;28;20032;-73
2023/06/25 00:16:19;;;;;;;23.05;12.02;;;;;;;;;;5072205;28;20047;-73
2023/06/25 00:18:47;;;;;;;21.42;11.77;;;;;;;;;;5072177;28;20060;-73
2023/06/25 00:21:13;;;;;;;15.10;8.38;;;;;;;;;;5073721;28;20055;-73
2023/06/25 00:23:38;;;;;;;22.30;11.35;;;;;;;;;;5071978;28;20064;-73
2023/06/25 00:26:03;;;;;;;19.13;9.30;;;;;;;;;;5073057;28;20025;-73
2023/06/25 00:28:29;;;;;;;17.80;10.75;;;;;;;;;;5071084;28;20025;-73
2023/06/25 00:30:54;;;;;;;19.10;9.50;;;;;;;;;;5071740;28;20021;-73
2023/06/25 00:33:19;;;;;;;16.35;8.30;;;;;;;;;;5072406;28;20020;-73
2023/06/25 00:35:47;;;;;;;21.85;11.70;;;;;;;;;;5081126;28;20023;-73
2023/06/25 00:38:13;;;;;;;17.23;10.05;;;;;;;;;;5073149;28;20070;-73
2023/06/25 00:40:38;;;;;;;19.67;11.88;;;;;;;;;;5074300;28;20016;-73
2023/06/25 00:43:03;;;;;;;17.95;10.27;;;;;;;;;;5093168;28;20070;-73
2023/06/25 00:45:29;;;;;;;15.55;8.98;;;;;;;;;;5087960;28;20513;-73
2023/06/25 00:47:54;;;;;;;14.95;8.15;;;;;;;;;;5055050;28;20032;-73
2023/06/25 00:50:22;;;;;;;12.90;7.13;;;;;;;;;;5086456;28;20024;-73
2023/06/25 00:52:48;;;;;;;12.77;8.00;;;;;;;;;;5092027;28;20028;-73
2023/06/25 00:55:14;;;;;;;12.32;8.05;;;;;;;;;;5091942;28;20035;-73
2023/06/25 00:57:41;;;;;;;16.00;9.32;;;;;;;;;;5090008;28;20514;-73
2023/06/25 01:00:10;;;;;;;17.15;9.23;;;;;;;;;;5090807;28;20486;-73
2023/06/25 01:02:43;;;;;;;16.73;10.13;;;;;;;;;;5083900;28;20120;-73
2023/06/25 01:05:17;;;;;;;16.00;10.23;;;;;;;;;;5088191;28;20020;-73
2023/06/25 01:07:44;;;;;;;18.58;10.45;;;;;;;;;;5071674;28;20470;-73
2023/06/25 01:10:11;;;;;;;14.20;8.55;;;;;;;;;;5071517;28;20125;-73
2023/06/25 01:12:36;;;;;;;17.20;9.85;;;;;;;;;;5071808;28;20028;-73
2023/06/25 01:15:02;;;;;;;14.38;8.80;;;;;;;;;;5071674;28;20013;-73
2023/06/25 01:17:29;;;;;;;17.63;10.20;;;;;;;;;;5071574;28;20032;-73
2023/06/25 01:19:54;;;;;;;22.02;12.65;;;;;;;;;;5072754;28;20425;-73
2023/06/25 01:22:32;;;;;;;18.85;10.05;;;;;;;;;;5072591;28;20059;-73
2023/06/25 01:24:59;;;;;;;14.40;7.82;;;;;;;;;;5073006;28;20044;-73
2023/06/25 01:27:24;;;;;;;16.10;9.15;;;;;;;;;;5071536;28;20074;-73
2023/06/25 01:29:50;;;;;;;17.13;9.85;;;;;;;;;;5072531;28;20048;-73
2023/06/25 01:32:16;;;;;;;19.75;10.10;;;;;;;;;;5153480;23;20082;-67
2023/06/25 01:34:41;;;;;;;20.77;11.52;;;;;;;;;;5116196;28;20031;-67
2023/06/25 01:37:07;;;;;;;15.77;9.65;;;;;;;;;;5117303;28;20103;-67
2023/06/25 01:39:32;;;;;;;16.73;8.88;;;;;;;;;;5117337;28;20438;-67
2023/06/25 01:41:58;;;;;;;20.50;11.68;;;;;;;;;;5116922;28;20035;-67
2023/06/25 01:44:26;;;;;;;17.83;9.63;;;;;;;;;;5115826;28;20114;-68
2023/06/25 01:46:52;;;;;;;17.83;9.50;;;;;;;;;;5115723;28;20088;-67
2023/06/25 01:49:17;;;;;;;14.25;9.35;;;;;;;;;;5116819;28;20047;-67
2023/06/25 01:51:43;;;;;;;22.17;12.50;;;;;;;;;;5116760;28;20497;-68
2023/06/25 01:54:08;;;;;;;20.48;12.90;;;;;;;;;;5116773;28;20483;-67
2023/06/25 01:56:33;;;;;;;18.05;9.63;;;;;;;;;;5116755;28;20106;-67
2023/06/25 01:58:59;;;;;;;14.88;8.90;;;;;;;;;;5116712;28;20068;-67
2023/06/25 02:01:24;;;;;;;15.10;7.72;;;;;;;;;;5116586;28;20031;-67
2023/06/25 02:03:49;;;;;;;13.15;8.27;;;;;;;;;;5116661;28;20075;-68
2023/06/25 02:06:15;;;;;;;12.05;7.20;;;;;;;;;;5116559;28;20181;-68
2023/06/25 02:08:40;;;;;;;15.45;10.27;;;;;;;;;;5116575;28;20442;-67
2023/06/25 02:11:06;;;;;;;29.05;14.05;;;;;;;;;;5115227;28;20495;-68
2023/06/25 02:13:33;;;;;;;20.55;12.50;;;;;;;;;;5116410;28;20023;-67
2023/06/25 02:15:58;;;;;;;24.42;12.95;;;;;;;;;;5115771;28;20380;-68
2023/06/25 02:18:23;;;;;;;19.08;9.82;;;;;;;;;;5116285;28;20019;-67
2023/06/25 02:20:49;;;;;;;21.85;10.88;;;;;;;;;;5116319;28;20027;-68
2023/06/25 02:23:14;;;;;;;18.05;11.35;;;;;;;;;;5116379;28;20031;-68
2023/06/25 02:25:39;;;;;;;19.48;11.45;;;;;;;;;;5116150;28;20384;-67
2023/06/25 02:28:04;;;;;;;20.17;10.43;;;;;;;;;;5116459;27;20042;-68
2023/06/25 02:30:30;;;;;;;31.73;16.55;;;;;;;;;;5115799;28;20023;-67
2023/06/25 02:32:55;;;;;;;36.05;20.35;;;;;;;;;;5116044;28;20023;-68
2023/06/25 02:35:21;;;;;;;40.60;19.52;;;;;;;;;;5115973;28;20027;-67
2023/06/25 02:37:46;;;;;;;37.22;18.67;;;;;;;;;;5115917;28;20019;-67
2023/06/25 02:40:11;;;;;;;46.90;22.67;;;;;;;;;;5115860;28;20053;-67
2023/06/25 02:42:37;;;;;;;44.63;23.05;;;;;;;;;;5104938;28;20366;-68
2023/06/25 02:45:02;;;;;;;44.70;20.58;;;;;;;;;;5095309;28;20019;-67
2023/06/25 02:47:27;;;;;;;64.25;24.52;;;;;;;;;;5095617;28;20024;-68
2023/06/25 02:49:53;;;;;;;50.63;22.33;;;;;;;;;;5095240;28;20034;-68
2023/06/25 02:52:18;;;;;;;47.55;22.20;;;;;;;;;;5095166;28;20504;-68
2023/06/25 02:54:43;;;;;;;40.33;16.92;;;;;;;;;;5095040;28;20102;-68
2023/06/25 02:57:09;;;;;;;43.05;21.52;;;;;;;;;;5097146;28;20024;-68
2023/06/25 02:59:34;;;;;;;44.38;21.13;;;;;;;;;;5115480;28;20020;-67
2023/06/25 03:01:59;;;;;;;43.78;19.23;;;;;;;;;;5115942;28;20030;-67
2023/06/25 03:04:25;;;;;;;46.83;20.38;;;;;;;;;;5115471;28;20020;-67
2023/06/25 03:06:50;;;;;;;69.60;24.30;;;;;;;;;;5115171;28;20585;-68
2023/06/25 03:09:15;;;;;;;43.47;20.20;;;;;;;;;;5115239;28;20027;-67
2023/06/25 03:11:41;;;;;;;31.73;13.93;;;;;;;;;;5115014;28;20023;-68
2023/06/25 03:14:06;;;;;;;37.45;17.92;;;;;;;;;;5115195;28;20039;-68
2023/06/25 03:16:31;;;;;;;57.75;24.00;;;;;;;;;;5115154;28;20062;-68
2023/06/25 03:18:57;;;;;;;74.75;26.92;;;;;;;;;;5114930;28;20023;-67
2023/06/25 03:21:23;;;;;;;43.50;21.95;;;;;;;;;;5114909;28;20392;-68
2023/06/25 03:23:48;;;;;;;32.60;14.55;;;;;;;;;;5115220;28;20031;-68
2023/06/25 03:26:13;;;;;;;45.13;20.80;;;;;;;;;;5113721;28;20098;-68
2023/06/25 03:28:39;;;;;;;44.55;20.63;;;;;;;;;;5114860;28;20030;-68
2023/06/25 03:31:04;;;;;;;44.05;22.60;;;;;;;;;;5114916;28;20107;-68
2023/06/25 03:33:29;;;;;;;48.88;23.55;;;;;;;;;;5111479;28;20150;-68
2023/06/25 03:35:54;;;;;;;45.55;21.40;;;;;;;;;;5110429;28;20032;-68
2023/06/25 03:38:20;;;;;;;34.97;18.92;;;;;;;;;;5110128;28;20027;-68
2023/06/25 03:40:45;;;;;;;38.58;18.83;;;;;;;;;;5096237;28;20066;-68
2023/06/25 03:43:10;;;;;;;65.22;24.90;;;;;;;;;;5109563;28;20034;-67
2023/06/25 03:45:35;;;;;;;28.75;17.13;;;;;;;;;;5107388;28;20031;-68
2023/06/25 03:48:01;;;;;;;33.35;18.98;;;;;;;;;;5093878;28;20547;-68
2023/06/25 03:50:26;;;;;;;29.17;18.30;;;;;;;;;;5099650;28;20027;-68
2023/06/25 03:52:51;;;;;;;21.67;14.40;;;;;;;;;;5107120;28;20032;-68
2023/06/25 03:55:17;;;;;;;61.13;24.38;;;;;;;;;;5104788;28;20397;-68
2023/06/25 03:57:42;;;;;;;36.17;19.90;;;;;;;;;;5106798;28;20051;-68
2023/06/25 04:00:08;;;;;;;33.35;21.00;;;;;;;;;;5101925;28;20035;-68
2023/06/25 04:02:34;;;;;;;29.10;18.77;;;;;;;;;;5113974;28;20031;-68
2023/06/25 04:04:59;;;;;;;32.10;21.60;;;;;;;;;;5113000;28;20016;-68
2023/06/25 04:07:24;;;;;;;29.02;18.73;;;;;;;;;;5112930;28;20093;-68
2023/06/25 04:09:49;;;;;;;43.05;22.55;;;;;;;;;;5113858;28;20106;-68
2023/06/25 04:12:15;;;;;;;35.35;21.77;;;;;;;;;;5114023;28;20105;-68
2023/06/25 04:14:40;;;;;;;34.92;22.85;;;;;;;;;;5114086;28;20020;-68
2023/06/25 04:17:05;;;;;;;33.90;20.50;;;;;;;;;;5112863;28;20380;-68
2023/06/25 04:19:31;;;;;;;67.78;24.60;;;;;;;;;;5114006;28;20018;-68
2023/06/25 04:21:56;;;;;;;36.40;19.25;;;;;;;;;;5112751;28;20027;-68
2023/06/25 04:24:21;;;;;;;30.42;17.70;;;;;;;;;;5113857;28;20028;-68
2023/06/25 04:26:47;;;;;;;30.98;16.70;;;;;;;;;;5113631;28;20031;-68
2023/06/25 04:29:12;;;;;;;28.15;16.15;;;;;;;;;;5113764;28;20110;-68
2023/06/25 04:31:39;;;;;;;20.25;11.90;;;;;;;;;;5112261;28;20043;-68
2023/06/25 04:34:04;;;;;;;25.70;15.77;;;;;;;;;;5113917;28;20024;-68
2023/06/25 04:36:29;;;;;;;22.00;12.98;;;;;;;;;;5112327;28;20023;-68
2023/06/25 04:38:54;;;;;;;28.42;16.20;;;;;;;;;;5112405;28;20488;-68
2023/06/25 04:41:20;;;;;;;45.58;19.88;;;;;;;;;;5113589;28;20015;-68
2023/06/25 04:43:45;;;;;;;33.10;19.52;;;;;;;;;;5113606;28;20396;-68
2023/06/25 04:46:10;;;;;;;26.63;15.77;;;;;;;;;;5113092;28;20015;-68
2023/06/25 04:48:36;;;;;;;32.92;18.33;;;;;;;;;;5113409;28;20127;-68
2023/06/25 04:51:03;;;;;;;26.30;14.88;;;;;;;;;;5111301;28;20020;-68
2023/06/25 04:53:28;;;;;;;29.75;16.92;;;;;;;;;;5113372;28;20064;-68
2023/06/25 04:55:53;;;;;;;26.05;16.17;;;;;;;;;;5112295;28;20027;-68
2023/06/25 04:58:19;;;;;;;36.85;19.05;;;;;;;;;;5099395;28;20104;-68
2023/06/25 05:00:44;;;;;;;40.83;21.85;;;;;;;;;;5095430;28;20368;-68
2023/06/25 05:03:09;;;;;;;36.28;19.38;;;;;;;;;;5113486;28;20073;-68
2023/06/25 05:05:35;;;;;;;39.20;19.77;;;;;;;;;;5113351;28;20024;-68
2023/06/25 05:08:00;;;;;;;25.38;13.73;;;;;;;;;;5114464;28;20107;-68
2023/06/25 05:10:25;;;;;;;27.25;16.10;;;;;;;;;;5117666;28;20026;-68
2023/06/25 05:12:50;;;;;;;35.53;19.48;;;;;;;;;;5117568;28;20019;-68
2023/06/25 05:15:16;;;;;;;34.22;17.50;;;;;;;;;;5117543;28;20065;-68
2023/06/25 05:17:41;;;;;;;39.42;19.13;;;;;;;;;;5117641;28;20016;-68
2023/06/25 05:20:07;;;;;;;34.47;17.50;;;;;;;;;;5111397;28;20016;-68
2023/06/25 05:22:32;;;;;;;41.22;17.63;;;;;;;;;;5097199;28;20024;-68
2023/06/25 05:24:58;;;;;;;41.72;20.20;;;;;;;;;;5097149;28;20019;-68
2023/06/25 05:27:23;;;;;;;43.00;17.23;;;;;;;;;;5096278;28;20015;-68
2023/06/25 05:29:48;;;;;;;37.40;13.77;;;;;;;;;;5096758;28;20020;-68
2023/06/25 05:32:16;;;;;;;52.20;14.13;;;;;;;;;;5097545;28;20028;-68
2023/06/25 05:34:41;;;;;;;57.60;17.60;;;;;;;;;;5096748;28;20071;-68
2023/06/25 05:37:07;;;;;;;85.05;18.08;;;;;;;;;;5096497;28;20485;-68
2023/06/25 05:39:32;;;;;;;60.17;15.95;;;;;;;;;;5096652;28;20031;-68
2023/06/25 05:41:58;;;;;;;41.45;15.07;;;;;;;;;;5096346;28;20027;-68
2023/06/25 05:44:24;;;;;;;43.38;15.75;;;;;;;;;;5112192;28;20020;-68
2023/06/25 05:46:49;;;;;;;30.75;12.23;;;;;;;;;;5115241;28;20342;-68
2023/06/25 05:49:15;;;;;;;25.65;10.75;;;;;;;;;;5116851;28;20034;-68
2023/06/25 05:51:40;;;;;;;25.67;11.63;;;;;;;;;;5097123;28;20115;-68
2023/06/25 05:54:05;;;;;;;28.02;12.40;;;;;;;;;;5096327;28;20030;-68
2023/06/25 05:56:30;;;;;;;33.20;12.30;;;;;;;;;;5096287;28;20095;-69
2023/06/25 05:58:56;;;;;;;27.75;10.98;;;;;;;;;;5096324;28;20039;-69
2023/06/25 06:01:21;;;;;;;28.58;12.52;;;;;;;;;;5096105;28;20020;-69
2023/06/25 06:03:47;;;;;;;31.00;14.05;;;;;;;;;;5096695;28;20031;-68
2023/06/25 06:06:13;;;;;;;27.35;11.70;;;;;;;;;;5096482;28;20443;-68
2023/06/25 06:08:38;;;;;;;26.23;9.95;;;;;;;;;;5073938;28;71578;-68
2023/06/25 06:11:03;;;;;;;29.92;12.52;;;;;;;;;;5072194;28;64177;-68
2023/06/25 06:13:29;;;;;;;29.33;12.27;;;;;;;;;;5058050;28;22225;-68
2023/06/25 06:15:54;;;;;;;29.17;11.05;;;;;;;;;;5074284;28;20060;-68
2023/06/25 06:18:19;;;;;;;26.75;11.93;;;;;;;;;;5075291;28;20024;-68
2023/06/25 06:20:45;;;;;;;35.88;12.30;;;;;;;;;;5074648;28;20024;-69
2023/06/25 06:23:10;;;;;;;40.50;13.27;;;;;;;;;;5075215;28;20490;-68
2023/06/25 06:25:35;;;;;;;38.08;13.02;;;;;;;;;;5075405;28;20024;-68
2023/06/25 06:28:02;;;;;;;31.63;11.63;;;;;;;;;;5075018;28;20032;-69
2023/06/25 06:30:27;;;;;;;37.10;14.38;;;;;;;;;;5074922;28;20402;-69
2023/06/25 06:32:53;;;;;;;29.98;13.13;;;;;;;;;;5075251;28;20021;-69
2023/06/25 06:35:18;;;;;;;38.15;15.23;;;;;;;;;;5075157;28;20538;-69
2023/06/25 06:37:44;;;;;;;36.70;13.18;;;;;;;;;;5073521;28;20028;-69
2023/06/25 06:40:09;;;;;;;39.60;14.88;;;;;;;;;;5074894;28;20030;-69
2023/06/25 06:42:35;;;;;;;40.30;15.00;;;;;;;;;;5074901;28;20032;-69
2023/06/25 06:45:01;;;;;;;35.90;13.68;;;;;;;;;;5074132;28;20032;-69
2023/06/25 06:47:27;;;;;;;42.70;14.98;;;;;;;;;;5073551;28;20059;-69
2023/06/25 06:49:52;;;;;;;35.78;14.15;;;;;;;;;;5074694;28;20059;-69
2023/06/25 06:52:23;;;;;;;38.67;13.88;;;;;;;;;;5075005;28;20363;-69
2023/06/25 06:54:48;;;;;;;40.10;13.05;;;;;;;;;;5074956;28;20085;-69
2023/06/25 06:57:14;;;;;;;33.53;12.35;;;;;;;;;;5074809;28;20016;-69
2023/06/25 06:59:39;;;;;;;37.45;13.27;;;;;;;;;;5067341;28;20021;-69
2023/06/25 07:02:05;;;;;;;31.80;13.98;;;;;;;;;;5074659;28;20481;-69
2023/06/25 07:04:30;;;;;;;28.65;12.55;;;;;;;;;;5074516;28;20095;-69
2023/06/25 07:06:55;;;;;;;38.72;17.23;;;;;;;;;;5072620;28;20047;-69
2023/06/25 07:09:22;;;;;;;40.28;15.57;;;;;;;;;;5074069;28;20034;-69
2023/06/25 07:11:47;;;;;;;39.78;18.20;;;;;;;;;;5073617;28;20025;-69
2023/06/25 07:14:13;;;;;;;34.42;14.82;;;;;;;;;;5074520;28;20020;-69
2023/06/25 07:16:38;;;;;;;38.20;18.02;;;;;;;;;;5074497;28;20025;-69
2023/06/25 07:19:04;;;;;;;31.92;16.33;;;;;;;;;;5073831;28;20066;-69
2023/06/25 07:21:29;;;;;;;37.83;16.70;;;;;;;;;;5075136;28;20102;-68
2023/06/25 07:23:54;;;;;;;37.17;17.67;;;;;;;;;;5073103;28;20043;-68
2023/06/25 07:26:20;;;;;;;30.95;14.95;;;;;;;;;;5074545;28;20031;-69
2023/06/25 07:28:45;;;;;;;33.08;15.50;;;;;;;;;;5058174;28;20040;-68
2023/06/25 07:31:11;;;;;;;36.72;17.58;;;;;;;;;;5052863;28;20025;-69
2023/06/25 07:33:36;;;;;;;33.67;16.08;;;;;;;;;;5052849;28;20039;-69
2023/06/25 07:36:02;;;;;;;33.70;16.00;;;;;;;;;;5054163;28;20028;-69
2023/06/25 07:38:27;;;;;;;30.85;14.07;;;;;;;;;;5053627;28;20017;-69
2023/06/25 07:40:52;;;;;;;33.50;14.88;;;;;;;;;;5053534;28;20016;-69
2023/06/25 07:43:18;;;;;;;37.67;16.25;;;;;;;;;;5053788;28;20025;-68
2023/06/25 07:45:43;;;;;;;34.17;15.45;;;;;;;;;;5053782;28;20021;-68
2023/06/25 07:48:08;;;;;;;28.90;12.70;;;;;;;;;;5053443;28;20017;-68
2023/06/25 07:50:34;;;;;;;29.00;14.20;;;;;;;;;;5052262;28;20138;-68
2023/06/25 07:52:59;;;;;;;26.60;13.13;;;;;;;;;;5053814;28;20064;-68
2023/06/25 07:55:25;;;;;;;27.65;14.48;;;;;;;;;;5054024;28;20024;-68
2023/06/25 07:57:50;;;;;;;26.50;12.90;;;;;;;;;;5053870;28;20025;-69
2023/06/25 08:00:16;;;;;;;25.67;12.68;;;;;;;;;;5053410;28;20020;-69
2023/06/25 08:02:41;;;;;;;20.92;10.60;;;;;;;;;;5054161;28;20024;-69
2023/06/25 08:05:07;;;;;;;22.42;13.88;;;;;;;;;;5065298;28;20393;-69
2023/06/25 08:07:32;;;;;;;23.13;11.23;;;;;;;;;;5073194;28;20020;-69
2023/06/25 08:09:57;;;;;;;24.58;12.52;;;;;;;;;;5072864;28;20077;-70
2023/06/25 08:12:23;;;;;;;19.45;11.05;;;;;;;;;;5072966;28;20034;-69
2023/06/25 08:14:48;;;;;;;23.92;12.68;;;;;;;;;;5067589;28;20389;-68
2023/06/25 08:17:14;;;;;;;23.75;12.70;;;;;;;;;;5053285;28;20031;-70
2023/06/25 08:19:39;;;;;;;22.77;12.02;;;;;;;;;;5053166;28;20021;-69
2023/06/25 08:22:04;;;;;;;17.83;10.60;;;;;;;;;;5062409;28;20031;-69
2023/06/25 08:24:30;;;;;;;22.58;11.07;;;;;;;;;;5073497;28;20024;-70
2023/06/25 08:26:55;;;;;;;22.27;12.20;;;;;;;;;;5073025;28;20523;-70
2023/06/25 08:29:21;;;;;;;20.02;9.57;;;;;;;;;;5073085;28;20020;-70
2023/06/25 08:31:46;;;;;;;16.88;9.13;;;;;;;;;;5071725;28;20485;-70
2023/06/25 08:34:12;;;;;;;17.67;9.70;;;;;;;;;;5072634;28;20028;-69
2023/06/25 08:36:38;;;;;;;19.40;9.77;;;;;;;;;;5072710;28;20025;-69
2023/06/25 08:39:03;;;;;;;18.10;9.30;;;;;;;;;;5062027;28;20051;-70
2023/06/25 08:41:29;;;;;;;12.32;6.97;;;;;;;;;;5051703;28;20060;-69
2023/06/25 08:43:54;;;;;;;16.83;8.75;;;;;;;;;;5070950;28;20024;-69
2023/06/25 08:46:24;;;;;;;12.40;7.65;;;;;;;;;;5071081;28;20032;-70
2023/06/25 08:48:54;;;;;;;13.48;7.82;;;;;;;;;;5070585;28;20028;-70
2023/06/25 08:51:22;;;;;;;10.95;6.22;;;;;;;;;;5072307;28;20551;-69
2023/06/25 08:53:48;;;;;;;12.48;6.65;;;;;;;;;;5071116;28;20095;-69
2023/06/25 08:56:16;;;;;;;10.68;6.60;;;;;;;;;;5072637;28;20480;-70
2023/06/25 08:58:42;;;;;;;10.82;6.60;;;;;;;;;;5062409;28;20025;-70
2023/06/25 09:01:08;;;;;;;14.70;6.65;;;;;;;;;;5052468;28;20048;-70
2023/06/25 09:03:33;;;;;;;9.02;5.15;;;;;;;;;;5057744;28;20032;-69
2023/06/25 09:05:59;;;;;;;11.07;6.82;;;;;;;;;;5072834;28;20032;-69
2023/06/25 09:08:25;;;;;;;9.07;4.13;;;;;;;;;;5056475;28;20025;-69
2023/06/25 09:10:55;;;;;;;11.60;6.40;;;;;;;;;;5053354;28;20506;-70
2023/06/25 09:13:26;;;;;;;9.50;6.15;;;;;;;;;;5060212;28;20028;-70
2023/06/25 09:15:53;;;;;;;9.52;5.43;;;;;;;;;;5071526;28;20029;-71
2023/06/25 09:18:21;;;;;;;9.57;5.85;;;;;;;;;;5070927;28;20520;-71
2023/06/25 09:20:48;;;;;;;13.40;6.85;;;;;;;;;;5054971;28;20049;-71
2023/06/25 09:23:21;;;;;;;7.55;5.18;;;;;;;;;;5070952;28;20097;-70
2023/06/25 09:25:47;;;;;;;8.07;3.97;;;;;;;;;;5071066;28;20050;-71
2023/06/25 09:28:13;;;;;;;6.65;4.40;;;;;;;;;;5069736;28;20037;-71
2023/06/25 09:30:39;;;;;;;8.38;4.65;;;;;;;;;;5071765;28;20021;-71
2023/06/25 09:33:05;;;;;;;9.68;5.82;;;;;;;;;;5063272;28;20099;-70
2023/06/25 09:35:31;;;;;;;10.60;6.75;;;;;;;;;;5052242;28;20394;-71
2023/06/25 09:37:57;;;;;;;9.90;5.43;;;;;;;;;;5057555;28;20020;-70
2023/06/25 09:40:22;;;;;;;7.53;4.95;;;;;;;;;;5072305;28;20099;-70
2023/06/25 09:42:51;;;;;;;9.38;6.05;;;;;;;;;;5066957;28;20021;-71
2023/06/25 09:45:16;;;;;;;7.30;4.65;;;;;;;;;;5071013;28;20128;-71
2023/06/25 09:47:47;;;;;;;7.57;4.78;;;;;;;;;;5072140;28;20103;-70
2023/06/25 09:50:20;;;;;;;7.40;4.28;;;;;;;;;;5063884;28;20035;-70
2023/06/25 09:52:56;;;;;;;7.38;4.30;;;;;;;;;;5050814;28;20025;-70
2023/06/25 09:55:22;;;;;;;7.47;4.25;;;;;;;;;;5064100;28;20074;-71
2023/06/25 09:57:47;;;;;;;6.78;4.05;;;;;;;;;;5074565;28;20399;-70
2023/06/25 10:00:13;;;;;;;7.18;4.00;;;;;;;;;;5073592;28;20023;-71
2023/06/25 10:02:39;;;;;;;5.90;3.40;;;;;;;;;;5074388;28;20074;-71
2023/06/25 10:05:04;;;;;;;4.45;2.90;;;;;;;;;;5075275;28;20025;-71
2023/06/25 10:07:30;;;;;;;4.22;2.70;;;;;;;;;;5074748;28;20021;-71
2023/06/25 10:09:56;;;;;;;4.00;2.67;;;;;;;;;;5075409;28;20029;-71
2023/06/25 10:12:22;;;;;;;4.05;2.38;;;;;;;;;;5074387;28;20048;-71
2023/06/25 10:14:48;;;;;;;4.22;2.50;;;;;;;;;;5075614;28;20020;-70
2023/06/25 10:17:14;;;;;;;4.30;2.47;;;;;;;;;;5075609;28;20027;-71
2023/06/25 10:19:50;;;;;;;4.93;2.63;;;;;;;;;;5074294;28;20013;-71
2023/06/25 10:22:21;;;;;;;3.47;2.25;;;;;;;;;;5075585;28;20035;-71
2023/06/25 10:24:50;;;;;;;4.68;2.45;;;;;;;;;;5074892;28;20036;-71
2023/06/25 10:27:28;;;;;;;5.13;2.78;;;;;;;;;;5074321;28;20397;-71
2023/06/25 10:29:54;;;;;;;2.97;1.75;;;;;;;;;;5075370;28;20049;-71
2023/06/25 10:32:24;;;;;;;3.22;2.15;;;;;;;;;;5073921;28;20493;-71
2023/06/25 10:34:58;;;;;;;2.85;2.13;;;;;;;;;;5074141;28;20020;-71
2023/06/25 10:37:31;;;;;;;2.95;1.90;;;;;;;;;;5074137;28;20024;-71
2023/06/25 10:40:04;;;;;;;2.63;1.83;;;;;;;;;;5074119;28;20153;-70
2023/06/25 10:42:31;;;;;;;3.25;2.00;;;;;;;;;;5075131;28;20074;-70
2023/06/25 10:44:56;;;;;;;2.90;1.60;;;;;;;;;;5075187;28;20095;-70
2023/06/25 10:47:21;;;;;;;5.68;1.85;;;;;;;;;;5073898;28;20024;-70
2023/06/25 10:49:47;;;;;;;2.63;1.60;;;;;;;;;;5074999;28;20020;-69
2023/06/25 10:52:12;;;;;;;2.28;1.60;;;;;;;;;;5074928;28;20490;-69
2023/06/25 10:54:37;;;;;;;2.67;1.70;;;;;;;;;;5075230;28;20021;-69
2023/06/25 10:57:10;;;;;;;3.63;1.85;;;;;;;;;;5074903;28;20066;-69
2023/06/25 10:59:35;;;;;;;2.50;1.55;;;;;;;;;;5075150;28;20123;-69
2023/06/25 11:02:18;;;;;;;2.58;1.27;;;;;;;;;;5073826;28;20495;-69
2023/06/25 11:04:54;;;;;;;2.90;1.45;;;;;;;;;;5073516;28;20450;-69
2023/06/25 11:07:20;;;;;;;2.00;1.23;;;;;;;;;;5074706;28;20048;-70
2023/06/25 11:09:58;;;;;;;2.72;1.67;;;;;;;;;;5073457;28;20116;-69
2023/06/25 11:12:24;;;;;;;2.03;1.23;;;;;;;;;;5074618;28;20036;-70
2023/06/25 11:14:49;;;;;;;2.92;1.40;;;;;;;;;;5074567;28;20025;-69
2023/06/25 11:17:15;;;;;;;2.25;1.40;;;;;;;;;;5073340;28;20508;-69
2023/06/25 11:19:41;;;;;;;2.10;1.40;;;;;;;;;;5074729;28;20017;-69
2023/06/25 11:22:07;;;;;;;1.75;1.20;;;;;;;;;;5074311;28;20027;-69
2023/06/25 11:24:36;;;;;;;2.53;1.27;;;;;;;;;;5073200;28;20052;-69
2023/06/25 11:27:02;;;;;;;2.70;1.30;;;;;;;;;;5073138;28;20044;-69
2023/06/25 11:29:37;;;;;;;2.20;1.30;;;;;;;;;;5074167;28;20034;-70
2023/06/25 11:32:08;;;;;;;2.40;1.38;;;;;;;;;;5074008;28;20021;-69
2023/06/25 11:34:34;;;;;;;3.15;2.05;;;;;;;;;;5074157;28;20035;-69
2023/06/25 11:37:12;;;;;;;2.70;1.48;;;;;;;;;;5074097;28;20025;-69
2023/06/25 11:39:42;;;;;;;2.58;1.65;;;;;;;;;;5074004;28;20104;-69
2023/06/25 11:42:15;;;;;;;2.30;1.48;;;;;;;;;;5066075;28;20029;-69
2023/06/25 11:44:41;;;;;;;3.08;1.75;;;;;;;;;;5053923;28;20021;-69
2023/06/25 11:47:07;;;;;;;2.70;1.70;;;;;;;;;;5053609;28;20078;-69
2023/06/25 11:49:32;;;;;;;3.10;1.90;;;;;;;;;;5053580;28;20035;-70
2023/06/25 11:51:58;;;;;;;2.63;1.50;;;;;;;;;;5052424;28;20067;-70
2023/06/25 11:54:24;;;;;;;2.95;2.05;;;;;;;;;;5052717;28;20094;-69
2023/06/25 11:56:49;;;;;;;4.47;1.90;;;;;;;;;;5051657;28;20531;-70
2023/06/25 11:59:15;;;;;;;3.22;2.05;;;;;;;;;;5053748;28;20037;-69
2023/06/25 12:01:40;;;;;;;2.50;1.60;;;;;;;;;;5053869;28;20020;-69
2023/06/25 12:04:05;;;;;;;3.20;1.90;;;;;;;;;;5053600;28;20025;-70
2023/06/25 12:06:31;;;;;;;3.20;2.30;;;;;;;;;;5053623;28;20032;-70
2023/06/25 12:08:56;;;;;;;3.53;2.25;;;;;;;;;;5053475;28;20500;-70
2023/06/25 12:11:21;;;;;;;3.05;2.13;;;;;;;;;;5052265;28;20054;-70
2023/06/25 12:13:47;;;;;;;4.40;2.22;;;;;;;;;;5052255;28;20027;-70
2023/06/25 12:16:12;;;;;;;2.95;2.17;;;;;;;;;;5052143;28;20032;-70
2023/06/25 12:18:37;;;;;;;3.17;2.30;;;;;;;;;;5052796;28;20024;-69
2023/06/25 12:21:03;;;;;;;3.38;2.30;;;;;;;;;;5053300;28;20467;-69
2023/06/25 12:23:28;;;;;;;4.68;2.88;;;;;;;;;;5053333;28;20025;-69
2023/06/25 12:25:54;;;;;;;3.70;2.50;;;;;;;;;;5054266;28;20032;-69
2023/06/25 12:28:19;;;;;;;4.82;2.60;;;;;;;;;;5066494;28;20028;-69
2023/06/25 12:30:45;;;;;;;4.38;2.70;;;;;;;;;;5060468;28;20041;-69
2023/06/25 12:33:10;;;;;;;5.13;2.95;;;;;;;;;;5067950;28;20047;-69
2023/06/25 12:35:35;;;;;;;4.22;2.67;;;;;;;;;;5069135;28;20026;-69
2023/06/25 12:38:02;;;;;;;4.55;3.00;;;;;;;;;;5062229;28;20024;-69
2023/06/25 12:40:27;;;;;;;6.82;2.75;;;;;;;;;;5062039;28;20021;-69
2023/06/25 12:42:53;;;;;;;5.20;2.97;;;;;;;;;;5062349;28;20021;-69
2023/06/25 12:45:18;;;;;;;5.50;3.10;;;;;;;;;;5072869;28;20103;-69
2023/06/25 12:47:44;;;;;;;6.80;3.15;;;;;;;;;;5072980;28;20017;-69
2023/06/25 12:50:11;;;;;;;5.03;3.38;;;;;;;;;;5072615;28;20410;-69
2023/06/25 12:52:36;;;;;;;6.93;3.55;;;;;;;;;;5072934;28;20099;-69
2023/06/25 12:55:04;;;;;;;4.13;2.80;;;;;;;;;;5071786;28;20111;-69
2023/06/25 12:57:29;;;;;;;6.25;3.05;;;;;;;;;;5071795;28;20082;-69
2023/06/25 12:59:55;;;;;;;4.90;2.88;;;;;;;;;;5071653;28;20021;-69
2023/06/25 13:02:20;;;;;;;4.07;2.90;;;;;;;;;;5071642;28;20085;-69
2023/06/25 13:04:46;;;;;;;4.20;3.00;;;;;;;;;;5071510;28;20028;-69
2023/06/25 13:07:11;;;;;;;5.40;2.80;;;;;;;;;;5072776;28;20027;-69
2023/06/25 13:09:36;;;;;;;5.13;2.97;;;;;;;;;;5071411;28;20035;-69
2023/06/25 13:12:02;;;;;;;5.70;2.85;;;;;;;;;;5072726;28;20025;-69
2023/06/25 13:14:27;;;;;;;6.07;3.38;;;;;;;;;;5072846;28;20021;-69
2023/06/25 13:16:52;;;;;;;4.80;3.20;;;;;;;;;;5069253;28;20032;-69
2023/06/25 13:19:18;;;;;;;4.43;2.92;;;;;;;;;;5069241;28;20028;-69
2023/06/25 13:21:44;;;;;;;4.85;2.67;;;;;;;;;;5065849;28;20027;-69
2023/06/25 13:24:11;;;;;;;5.53;2.85;;;;;;;;;;5060093;28;20024;-69
2023/06/25 13:26:37;;;;;;;4.75;3.08;;;;;;;;;;5072221;28;20028;-69
2023/06/25 13:29:02;;;;;;;4.47;2.97;;;;;;;;;;5074565;28;20054;-69
2023/06/25 13:31:27;;;;;;;5.90;3.63;;;;;;;;;;5076424;28;20390;-69
2023/06/25 13:33:53;;;;;;;5.00;3.40;;;;;;;;;;5080559;23;20033;-73
2023/06/25 13:36:18;;;;;;;4.90;3.05;;;;;;;;;;5056288;28;20025;-74
2023/06/25 13:38:43;;;;;;;5.18;3.38;;;;;;;;;;5055048;28;20021;-73
2023/06/25 13:41:09;;;;;;;5.25;3.65;;;;;;;;;;5055432;28;20023;-73
2023/06/25 13:43:34;;;;;;;5.65;3.45;;;;;;;;;;5055330;28;20029;-73
2023/06/25 13:46:01;;;;;;;4.82;3.55;;;;;;;;;;5055399;28;20040;-73
2023/06/25 13:48:26;;;;;;;5.65;3.95;;;;;;;;;;5056122;28;20029;-73
2023/06/25 13:50:51;;;;;;;5.40;3.80;;;;;;;;;;5053562;28;20036;-73
2023/06/25 13:53:18;;;;;;;5.28;3.60;;;;;;;;;;5054711;28;20028;-73
2023/06/25 13:55:44;;;;;;;5.88;3.88;;;;;;;;;;5054741;28;20025;-73
2023/06/25 13:58:09;;;;;;;6.82;4.72;;;;;;;;;;5056151;28;20402;-73
2023/06/25 14:00:35;;;;;;;10.05;4.00;;;;;;;;;;5055793;28;20016;-74
2023/06/25 14:03:05;;;;;;;6.15;4.05;;;;;;;;;;5055685;28;20025;-73
2023/06/25 14:05:35;;;;;;;5.82;4.20;;;;;;;;;;5056003;28;20025;-73
2023/06/25 14:08:01;;;;;;;6.40;4.13;;;;;;;;;;5056150;28;20025;-73
2023/06/25 14:10:26;;;;;;;6.68;3.97;;;;;;;;;;5055678;28;20501;-73
2023/06/25 14:12:52;;;;;;;6.45;4.32;;;;;;;;;;5055398;28;20024;-73
2023/06/25 14:15:17;;;;;;;5.50;4.40;;;;;;;;;;5055017;28;20390;-73
2023/06/25 14:17:43;;;;;;;5.90;3.65;;;;;;;;;;5055588;28;20029;-73
2023/06/25 14:20:08;;;;;;;6.50;3.85;;;;;;;;;;5055926;28;20017;-73
2023/06/25 14:22:34;;;;;;;5.03;3.80;;;;;;;;;;5054867;28;20071;-73